sensor_id;sensor_type;location;lat;lon;timestamp;P1;durP1;ratioP1;P2;durP2;ratioP2
31782;SDS011;18351;47.560;9.708;2023-06-10T00:00:16;8.15;;;7.20;;
31782;SDS011;18351;47.560;9.708;2023-06-10T00:02:42;10.73;;;7.10;;
31782;SDS011;18351;47.560;9.708;2023-06-10T00:05:08;8.75;;;7.57;;
31782;SDS011;18351;47.560;9.708;2023-06-10T00:07:34;9.82;;;7.82;;
31782;SDS011;18351;47.560;9.708;2023-06-10T00:10:04;9.65;;;7.85;;
31782;SDS011;18351;47.560;9.708;2023-06-10T00:12:31;8.90;;;7.50;;
31782;SDS011;18351;47.560;9.708;2023-06-10T00:15:01;12.52;;;7.90;;
31782;SDS011;18351;47.560;9.708;2023-06-10T00:17:28;10.20;;;7.55;;
31782;SDS011;18351;47.560;9.708;2023-06-10T00:19:54;9.55;;;7.47;;
31782;SDS011;18351;47.560;9.708;2023-06-10T00:22:20;8.18;;;7.35;;
31782;SDS011;18351;47.560;9.708;2023-06-10T00:24:47;8.93;;;7.30;;
31782;SDS011;18351;47.560;9.708;2023-06-10T00:27:12;13.43;;;8.10;;
31782;SDS011;18351;47.560;9.708;2023-06-10T00:29:38;8.85;;;7.43;;
31782;SDS011;18351;47.560;9.708;2023-06-10T00:32:04;8.93;;;7.13;;
31782;SDS011;18351;47.560;9.708;2023-06-10T00:34:30;11.30;;;6.93;;
31782;SDS011;18351;47.560;9.708;2023-06-10T00:36:57;9.38;;;7.30;;
31782;SDS011;18351;47.560;9.708;2023-06-10T00:39:23;13.40;;;7.32;;
31782;SDS011;18351;47.560;9.708;2023-06-10T00:41:48;7.88;;;6.82;;
31782;SDS011;18351;47.560;9.708;2023-06-10T00:44:14;8.57;;;7.60;;
31782;SDS011;18351;47.560;9.708;2023-06-10T00:46:40;9.68;;;7.10;;
31782;SDS011;18351;47.560;9.708;2023-06-10T00:49:06;10.70;;;7.50;;
31782;SDS011;18351;47.560;9.708;2023-06-10T00:51:33;9.82;;;7.13;;
31782;SDS011;18351;47.560;9.708;2023-06-10T00:53:59;8.07;;;7.25;;
31782;SDS011;18351;47.560;9.708;2023-06-10T00:56:25;9.40;;;7.28;;
31782;SDS011;18351;47.560;9.708;2023-06-10T00:58:50;11.13;;;7.50;;
31782;SDS011;18351;47.560;9.708;2023-06-10T01:01:16;9.70;;;7.30;;
31782;SDS011;18351;47.560;9.708;2023-06-10T01:03:42;8.35;;;6.90;;
31782;SDS011;18351;47.560;9.708;2023-06-10T01:06:29;9.95;;;7.40;;
31782;SDS011;18351;47.560;9.708;2023-06-10T01:09:22;8.75;;;7.82;;
31782;SDS011;18351;47.560;9.708;2023-06-10T01:12:10;8.98;;;7.22;;
31782;SDS011;18351;47.560;9.708;2023-06-10T01:14:41;8.93;;;7.07;;
31782;SDS011;18351;47.560;9.708;2023-06-10T01:17:10;9.45;;;7.13;;
31782;SDS011;18351;47.560;9.708;2023-06-10T01:19:36;9.25;;;7.55;;
31782;SDS011;18351;47.560;9.708;2023-06-10T01:22:02;8.57;;;7.68;;
31782;SDS011;18351;47.560;9.708;2023-06-10T01:24:28;9.07;;;7.65;;
31782;SDS011;18351;47.560;9.708;2023-06-10T01:26:57;8.90;;;7.60;;
31782;SDS011;18351;47.560;9.708;2023-06-10T01:29:28;12.93;;;7.85;;
31782;SDS011;18351;47.560;9.708;2023-06-10T01:32:06;10.73;;;8.18;;
31782;SDS011;18351;47.560;9.708;2023-06-10T01:34:36;11.48;;;7.13;;
31782;SDS011;18351;47.560;9.708;2023-06-10T01:37:07;10.82;;;7.78;;
31782;SDS011;18351;47.560;9.708;2023-06-10T01:39:33;9.70;;;7.53;;
31782;SDS011;18351;47.560;9.708;2023-06-10T01:42:00;13.23;;;8.77;;
31782;SDS011;18351;47.560;9.708;2023-06-10T01:44:27;10.00;;;7.65;;
31782;SDS011;18351;47.560;9.708;2023-06-10T01:46:53;8.77;;;7.88;;
31782;SDS011;18351;47.560;9.708;2023-06-10T01:49:18;9.50;;;8.50;;
31782;SDS011;18351;47.560;9.708;2023-06-10T01:51:44;9.80;;;8.77;;
31782;SDS011;18351;47.560;9.708;2023-06-10T01:54:09;13.40;;;8.18;;
31782;SDS011;18351;47.560;9.708;2023-06-10T01:56:35;9.65;;;8.65;;
31782;SDS011;18351;47.560;9.708;2023-06-10T01:59:00;9.98;;;8.70;;
31782;SDS011;18351;47.560;9.708;2023-06-10T02:01:26;14.18;;;8.52;;
31782;SDS011;18351;47.560;9.708;2023-06-10T02:03:52;12.13;;;9.10;;
31782;SDS011;18351;47.560;9.708;2023-06-10T02:06:18;9.85;;;8.60;;
31782;SDS011;18351;47.560;9.708;2023-06-10T02:08:43;10.57;;;8.77;;
31782;SDS011;18351;47.560;9.708;2023-06-10T02:11:09;10.77;;;9.10;;
31782;SDS011;18351;47.560;9.708;2023-06-10T02:13:34;11.60;;;9.15;;
31782;SDS011;18351;47.560;9.708;2023-06-10T02:16:00;13.32;;;9.43;;
31782;SDS011;18351;47.560;9.708;2023-06-10T02:18:26;10.27;;;8.75;;
31782;SDS011;18351;47.560;9.708;2023-06-10T02:20:53;11.52;;;8.77;;
31782;SDS011;18351;47.560;9.708;2023-06-10T02:23:19;10.02;;;8.80;;
31782;SDS011;18351;47.560;9.708;2023-06-10T02:25:44;11.43;;;9.63;;
31782;SDS011;18351;47.560;9.708;2023-06-10T02:28:12;12.25;;;9.05;;
31782;SDS011;18351;47.560;9.708;2023-06-10T02:30:41;10.45;;;9.15;;
31782;SDS011;18351;47.560;9.708;2023-06-10T02:33:07;11.65;;;9.73;;
31782;SDS011;18351;47.560;9.708;2023-06-10T02:35:38;13.55;;;10.10;;
31782;SDS011;18351;47.560;9.708;2023-06-10T02:38:04;11.85;;;9.18;;
31782;SDS011;18351;47.560;9.708;2023-06-10T02:40:30;12.70;;;9.38;;
31782;SDS011;18351;47.560;9.708;2023-06-10T02:42:56;12.75;;;9.73;;
31782;SDS011;18351;47.560;9.708;2023-06-10T02:45:22;13.07;;;10.48;;
31782;SDS011;18351;47.560;9.708;2023-06-10T02:47:47;14.52;;;11.02;;
31782;SDS011;18351;47.560;9.708;2023-06-10T02:50:13;15.13;;;10.60;;
31782;SDS011;18351;47.560;9.708;2023-06-10T02:52:38;14.15;;;10.23;;
31782;SDS011;18351;47.560;9.708;2023-06-10T02:55:04;13.80;;;9.90;;
31782;SDS011;18351;47.560;9.708;2023-06-10T02:57:30;12.93;;;10.95;;
31782;SDS011;18351;47.560;9.708;2023-06-10T02:59:55;13.27;;;9.77;;
31782;SDS011;18351;47.560;9.708;2023-06-10T03:02:23;12.43;;;9.82;;
31782;SDS011;18351;47.560;9.708;2023-06-10T03:04:56;12.23;;;9.43;;
31782;SDS011;18351;47.560;9.708;2023-06-10T03:07:22;11.60;;;10.13;;
31782;SDS011;18351;47.560;9.708;2023-06-10T03:09:48;19.33;;;11.13;;
31782;SDS011;18351;47.560;9.708;2023-06-10T03:12:14;12.55;;;10.13;;
31782;SDS011;18351;47.560;9.708;2023-06-10T03:14:40;12.02;;;10.05;;
31782;SDS011;18351;47.560;9.708;2023-06-10T03:17:05;11.68;;;10.05;;
31782;SDS011;18351;47.560;9.708;2023-06-10T03:19:33;13.80;;;10.35;;
31782;SDS011;18351;47.560;9.708;2023-06-10T03:22:08;13.75;;;10.70;;
31782;SDS011;18351;47.560;9.708;2023-06-10T03:24:35;13.23;;;10.00;;
31782;SDS011;18351;47.560;9.708;2023-06-10T03:27:04;13.00;;;10.07;;
31782;SDS011;18351;47.560;9.708;2023-06-10T03:29:33;12.23;;;10.75;;
31782;SDS011;18351;47.560;9.708;2023-06-10T03:31:59;17.17;;;10.95;;
31782;SDS011;18351;47.560;9.708;2023-06-10T03:34:25;12.98;;;11.13;;
31782;SDS011;18351;47.560;9.708;2023-06-10T03:36:50;13.88;;;10.77;;
31782;SDS011;18351;47.560;9.708;2023-06-10T03:39:16;15.77;;;10.32;;
31782;SDS011;18351;47.560;9.708;2023-06-10T03:41:41;12.35;;;11.05;;
31782;SDS011;18351;47.560;9.708;2023-06-10T03:44:07;13.32;;;11.25;;
31782;SDS011;18351;47.560;9.708;2023-06-10T03:46:32;12.85;;;11.23;;
31782;SDS011;18351;47.560;9.708;2023-06-10T03:48:58;13.13;;;11.00;;
31782;SDS011;18351;47.560;9.708;2023-06-10T03:51:25;12.65;;;10.13;;
31782;SDS011;18351;47.560;9.708;2023-06-10T03:53:51;17.52;;;10.70;;
31782;SDS011;18351;47.560;9.708;2023-06-10T03:56:17;13.05;;;10.85;;
31782;SDS011;18351;47.560;9.708;2023-06-10T03:58:43;13.95;;;11.50;;
31782;SDS011;18351;47.560;9.708;2023-06-10T04:01:08;12.30;;;10.93;;
31782;SDS011;18351;47.560;9.708;2023-06-10T04:03:34;12.05;;;10.48;;
31782;SDS011;18351;47.560;9.708;2023-06-10T04:05:59;12.23;;;10.00;;
31782;SDS011;18351;47.560;9.708;2023-06-10T04:08:25;11.60;;;10.40;;
31782;SDS011;18351;47.560;9.708;2023-06-10T04:10:50;13.70;;;10.43;;
31782;SDS011;18351;47.560;9.708;2023-06-10T04:13:16;11.80;;;10.52;;
31782;SDS011;18351;47.560;9.708;2023-06-10T04:15:42;19.02;;;13.07;;
31782;SDS011;18351;47.560;9.708;2023-06-10T04:18:07;11.18;;;9.98;;
31782;SDS011;18351;47.560;9.708;2023-06-10T04:20:33;11.48;;;9.85;;
31782;SDS011;18351;47.560;9.708;2023-06-10T04:22:59;12.68;;;10.75;;
31782;SDS011;18351;47.560;9.708;2023-06-10T04:25:24;11.90;;;10.57;;
31782;SDS011;18351;47.560;9.708;2023-06-10T04:27:51;16.80;;;11.30;;
31782;SDS011;18351;47.560;9.708;2023-06-10T04:30:16;10.77;;;9.68;;
31782;SDS011;18351;47.560;9.708;2023-06-10T04:32:43;11.02;;;9.75;;
31782;SDS011;18351;47.560;9.708;2023-06-10T04:35:11;11.45;;;10.18;;
31782;SDS011;18351;47.560;9.708;2023-06-10T04:37:36;12.43;;;10.15;;
31782;SDS011;18351;47.560;9.708;2023-06-10T04:40:02;11.45;;;10.25;;
31782;SDS011;18351;47.560;9.708;2023-06-10T04:42:28;14.02;;;10.80;;
31782;SDS011;18351;47.560;9.708;2023-06-10T04:44:53;13.85;;;10.40;;
31782;SDS011;18351;47.560;9.708;2023-06-10T04:47:19;13.88;;;11.77;;
31782;SDS011;18351;47.560;9.708;2023-06-10T04:49:45;13.63;;;11.15;;
31782;SDS011;18351;47.560;9.708;2023-06-10T04:52:10;12.55;;;11.25;;
31782;SDS011;18351;47.560;9.708;2023-06-10T04:54:36;14.13;;;11.23;;
31782;SDS011;18351;47.560;9.708;2023-06-10T04:57:01;12.70;;;10.98;;
31782;SDS011;18351;47.560;9.708;2023-06-10T04:59:27;13.60;;;11.48;;
31782;SDS011;18351;47.560;9.708;2023-06-10T05:01:53;15.32;;;10.95;;
31782;SDS011;18351;47.560;9.708;2023-06-10T05:04:19;14.23;;;10.82;;
31782;SDS011;18351;47.560;9.708;2023-06-10T05:06:45;11.75;;;10.48;;
31782;SDS011;18351;47.560;9.708;2023-06-10T05:09:13;13.45;;;10.73;;
31782;SDS011;18351;47.560;9.708;2023-06-10T05:11:39;14.70;;;12.13;;
31782;SDS011;18351;47.560;9.708;2023-06-10T05:14:04;12.20;;;10.95;;
31782;SDS011;18351;47.560;9.708;2023-06-10T05:16:30;15.43;;;10.98;;
31782;SDS011;18351;47.560;9.708;2023-06-10T05:18:56;13.73;;;11.63;;
31782;SDS011;18351;47.560;9.708;2023-06-10T05:21:21;14.13;;;10.75;;
31782;SDS011;18351;47.560;9.708;2023-06-10T05:23:47;12.52;;;10.23;;
31782;SDS011;18351;47.560;9.708;2023-06-10T05:26:12;10.80;;;9.27;;
31782;SDS011;18351;47.560;9.708;2023-06-10T05:28:38;10.93;;;9.55;;
31782;SDS011;18351;47.560;9.708;2023-06-10T05:31:03;9.43;;;8.48;;
31782;SDS011;18351;47.560;9.708;2023-06-10T05:33:29;11.10;;;8.68;;
31782;SDS011;18351;47.560;9.708;2023-06-10T05:35:54;10.45;;;8.65;;
31782;SDS011;18351;47.560;9.708;2023-06-10T05:38:20;9.52;;;8.45;;
31782;SDS011;18351;47.560;9.708;2023-06-10T05:40:45;10.00;;;8.68;;
31782;SDS011;18351;47.560;9.708;2023-06-10T05:43:11;11.18;;;8.45;;
31782;SDS011;18351;47.560;9.708;2023-06-10T05:45:37;9.82;;;8.38;;
31782;SDS011;18351;47.560;9.708;2023-06-10T05:48:03;9.30;;;7.90;;
31782;SDS011;18351;47.560;9.708;2023-06-10T05:50:28;9.43;;;7.93;;
31782;SDS011;18351;47.560;9.708;2023-06-10T05:52:54;12.50;;;6.28;;
31782;SDS011;18351;47.560;9.708;2023-06-10T05:55:20;8.27;;;6.88;;
31782;SDS011;18351;47.560;9.708;2023-06-10T05:57:45;6.68;;;6.05;;
31782;SDS011;18351;47.560;9.708;2023-06-10T06:00:11;7.03;;;6.32;;
31782;SDS011;18351;47.560;9.708;2023-06-10T06:02:38;7.25;;;6.13;;
31782;SDS011;18351;47.560;9.708;2023-06-10T06:05:03;7.90;;;5.97;;
31782;SDS011;18351;47.560;9.708;2023-06-10T06:07:29;12.15;;;5.93;;
31782;SDS011;18351;47.560;9.708;2023-06-10T06:09:55;9.20;;;6.68;;
31782;SDS011;18351;47.560;9.708;2023-06-10T06:12:20;6.70;;;6.10;;
31782;SDS011;18351;47.560;9.708;2023-06-10T06:14:46;7.32;;;6.05;;
31782;SDS011;18351;47.560;9.708;2023-06-10T06:17:14;6.80;;;5.65;;
31782;SDS011;18351;47.560;9.708;2023-06-10T06:19:39;6.55;;;5.95;;
31782;SDS011;18351;47.560;9.708;2023-06-10T06:22:05;7.13;;;6.43;;
31782;SDS011;18351;47.560;9.708;2023-06-10T06:24:30;11.50;;;7.38;;
31782;SDS011;18351;47.560;9.708;2023-06-10T06:26:56;7.22;;;6.30;;
31782;SDS011;18351;47.560;9.708;2023-06-10T06:29:21;7.97;;;6.35;;
31782;SDS011;18351;47.560;9.708;2023-06-10T06:31:47;7.72;;;6.07;;
31782;SDS011;18351;47.560;9.708;2023-06-10T06:34:12;8.05;;;7.20;;
31782;SDS011;18351;47.560;9.708;2023-06-10T06:36:38;8.00;;;7.03;;
31782;SDS011;18351;47.560;9.708;2023-06-10T06:39:03;9.48;;;8.18;;
31782;SDS011;18351;47.560;9.708;2023-06-10T06:41:29;7.85;;;6.72;;
31782;SDS011;18351;47.560;9.708;2023-06-10T06:43:55;10.20;;;7.60;;
31782;SDS011;18351;47.560;9.708;2023-06-10T06:46:20;10.13;;;9.05;;
31782;SDS011;18351;47.560;9.708;2023-06-10T06:48:47;10.32;;;9.27;;
31782;SDS011;18351;47.560;9.708;2023-06-10T06:51:13;9.45;;;8.30;;
31782;SDS011;18351;47.560;9.708;2023-06-10T06:53:39;9.85;;;8.95;;
31782;SDS011;18351;47.560;9.708;2023-06-10T06:56:12;10.85;;;9.80;;
31782;SDS011;18351;47.560;9.708;2023-06-10T06:58:38;14.88;;;10.25;;
31782;SDS011;18351;47.560;9.708;2023-06-10T07:01:04;15.65;;;9.82;;
31782;SDS011;18351;47.560;9.708;2023-06-10T07:03:29;14.68;;;10.65;;
31782;SDS011;18351;47.560;9.708;2023-06-10T07:05:55;10.77;;;9.68;;
31782;SDS011;18351;47.560;9.708;2023-06-10T07:08:20;14.27;;;10.90;;
31782;SDS011;18351;47.560;9.708;2023-06-10T07:10:46;11.57;;;10.38;;
31782;SDS011;18351;47.560;9.708;2023-06-10T07:13:12;13.30;;;10.75;;
31782;SDS011;18351;47.560;9.708;2023-06-10T07:15:38;14.77;;;11.57;;
31782;SDS011;18351;47.560;9.708;2023-06-10T07:18:03;12.77;;;10.40;;
31782;SDS011;18351;47.560;9.708;2023-06-10T07:20:29;13.52;;;10.85;;
31782;SDS011;18351;47.560;9.708;2023-06-10T07:22:55;13.65;;;12.23;;
31782;SDS011;18351;47.560;9.708;2023-06-10T07:25:21;19.55;;;11.50;;
31782;SDS011;18351;47.560;9.708;2023-06-10T07:27:46;12.65;;;10.23;;
31782;SDS011;18351;47.560;9.708;2023-06-10T07:30:12;12.27;;;11.02;;
31782;SDS011;18351;47.560;9.708;2023-06-10T07:32:38;13.32;;;10.88;;
31782;SDS011;18351;47.560;9.708;2023-06-10T07:35:03;13.82;;;12.27;;
31782;SDS011;18351;47.560;9.708;2023-06-10T07:37:33;12.93;;;11.63;;
31782;SDS011;18351;47.560;9.708;2023-06-10T07:39:58;14.20;;;11.77;;
31782;SDS011;18351;47.560;9.708;2023-06-10T07:42:24;12.93;;;11.27;;
31782;SDS011;18351;47.560;9.708;2023-06-10T07:44:49;12.32;;;11.05;;
31782;SDS011;18351;47.560;9.708;2023-06-10T07:47:15;14.75;;;12.98;;
31782;SDS011;18351;47.560;9.708;2023-06-10T07:49:41;19.88;;;13.38;;
31782;SDS011;18351;47.560;9.708;2023-06-10T07:52:07;13.35;;;11.95;;
31782;SDS011;18351;47.560;9.708;2023-06-10T07:54:33;16.45;;;11.85;;
31782;SDS011;18351;47.560;9.708;2023-06-10T07:56:58;16.85;;;12.40;;
31782;SDS011;18351;47.560;9.708;2023-06-10T07:59:24;15.55;;;12.82;;
31782;SDS011;18351;47.560;9.708;2023-06-10T08:01:51;14.18;;;12.77;;
31782;SDS011;18351;47.560;9.708;2023-06-10T08:04:17;14.43;;;11.32;;
31782;SDS011;18351;47.560;9.708;2023-06-10T08:06:43;13.45;;;12.00;;
31782;SDS011;18351;47.560;9.708;2023-06-10T08:09:08;15.38;;;12.45;;
31782;SDS011;18351;47.560;9.708;2023-06-10T08:11:34;16.80;;;12.93;;
31782;SDS011;18351;47.560;9.708;2023-06-10T08:14:00;14.32;;;12.93;;
31782;SDS011;18351;47.560;9.708;2023-06-10T08:16:26;17.00;;;13.30;;
31782;SDS011;18351;47.560;9.708;2023-06-10T08:18:51;14.73;;;12.90;;
31782;SDS011;18351;47.560;9.708;2023-06-10T08:21:17;15.40;;;11.38;;
31782;SDS011;18351;47.560;9.708;2023-06-10T08:23:43;15.75;;;13.07;;
31782;SDS011;18351;47.560;9.708;2023-06-10T08:26:09;13.95;;;12.50;;
31782;SDS011;18351;47.560;9.708;2023-06-10T08:28:34;13.52;;;11.68;;
31782;SDS011;18351;47.560;9.708;2023-06-10T08:31:00;14.10;;;10.80;;
31782;SDS011;18351;47.560;9.708;2023-06-10T08:33:25;15.50;;;13.77;;
31782;SDS011;18351;47.560;9.708;2023-06-10T08:35:51;15.88;;;14.15;;
31782;SDS011;18351;47.560;9.708;2023-06-10T08:38:16;12.80;;;11.60;;
31782;SDS011;18351;47.560;9.708;2023-06-10T08:40:42;15.68;;;13.30;;
31782;SDS011;18351;47.560;9.708;2023-06-10T08:43:10;14.82;;;11.65;;
31782;SDS011;18351;47.560;9.708;2023-06-10T08:45:47;13.93;;;12.23;;
31782;SDS011;18351;47.560;9.708;2023-06-10T08:48:14;16.17;;;12.25;;
31782;SDS011;18351;47.560;9.708;2023-06-10T08:50:44;13.15;;;11.60;;
31782;SDS011;18351;47.560;9.708;2023-06-10T08:53:10;16.42;;;14.73;;
31782;SDS011;18351;47.560;9.708;2023-06-10T08:55:42;18.88;;;12.43;;
31782;SDS011;18351;47.560;9.708;2023-06-10T08:58:09;12.68;;;11.23;;
31782;SDS011;18351;47.560;9.708;2023-06-10T09:00:35;14.02;;;12.55;;
31782;SDS011;18351;47.560;9.708;2023-06-10T09:03:02;15.40;;;12.38;;
31782;SDS011;18351;47.560;9.708;2023-06-10T09:05:31;12.73;;;11.32;;
31782;SDS011;18351;47.560;9.708;2023-06-10T09:07:58;15.75;;;12.90;;
31782;SDS011;18351;47.560;9.708;2023-06-10T09:10:25;14.52;;;11.93;;
31782;SDS011;18351;47.560;9.708;2023-06-10T09:12:51;13.93;;;11.32;;
31782;SDS011;18351;47.560;9.708;2023-06-10T09:15:17;14.45;;;10.82;;
31782;SDS011;18351;47.560;9.708;2023-06-10T09:17:42;14.82;;;11.70;;
31782;SDS011;18351;47.560;9.708;2023-06-10T09:20:08;15.23;;;12.60;;
31782;SDS011;18351;47.560;9.708;2023-06-10T09:22:35;13.65;;;12.10;;
31782;SDS011;18351;47.560;9.708;2023-06-10T09:25:07;13.30;;;11.90;;
31782;SDS011;18351;47.560;9.708;2023-06-10T09:27:43;14.52;;;13.02;;
31782;SDS011;18351;47.560;9.708;2023-06-10T09:30:34;13.70;;;11.65;;
31782;SDS011;18351;47.560;9.708;2023-06-10T09:33:00;21.83;;;14.23;;
31782;SDS011;18351;47.560;9.708;2023-06-10T09:35:28;16.55;;;14.77;;
31782;SDS011;18351;47.560;9.708;2023-06-10T09:37:56;13.55;;;12.15;;
31782;SDS011;18351;47.560;9.708;2023-06-10T09:40:23;12.18;;;10.90;;
31782;SDS011;18351;47.560;9.708;2023-06-10T09:45:21;21.10;;;13.55;;
31782;SDS011;18351;47.560;9.708;2023-06-10T09:47:51;16.52;;;14.68;;
31782;SDS011;18351;47.560;9.708;2023-06-10T09:50:20;16.40;;;12.57;;
31782;SDS011;18351;47.560;9.708;2023-06-10T09:52:46;16.88;;;12.20;;
31782;SDS011;18351;47.560;9.708;2023-06-10T09:55:15;16.05;;;13.25;;
31782;SDS011;18351;47.560;9.708;2023-06-10T09:57:41;15.13;;;13.55;;
31782;SDS011;18351;47.560;9.708;2023-06-10T10:00:09;13.65;;;12.25;;
31782;SDS011;18351;47.560;9.708;2023-06-10T10:02:46;14.68;;;12.65;;
31782;SDS011;18351;47.560;9.708;2023-06-10T10:05:14;20.35;;;14.68;;
31782;SDS011;18351;47.560;9.708;2023-06-10T10:07:41;17.33;;;14.20;;
31782;SDS011;18351;47.560;9.708;2023-06-10T10:10:07;18.80;;;13.13;;
31782;SDS011;18351;47.560;9.708;2023-06-10T10:12:34;17.48;;;15.02;;
31782;SDS011;18351;47.560;9.708;2023-06-10T10:15:01;17.50;;;14.23;;
31782;SDS011;18351;47.560;9.708;2023-06-10T10:17:27;17.33;;;15.52;;
31782;SDS011;18351;47.560;9.708;2023-06-10T10:19:56;15.38;;;13.88;;
31782;SDS011;18351;47.560;9.708;2023-06-10T10:22:33;16.52;;;13.77;;
31782;SDS011;18351;47.560;9.708;2023-06-10T10:25:05;16.15;;;14.13;;
31782;SDS011;18351;47.560;9.708;2023-06-10T10:27:43;14.68;;;13.18;;
31782;SDS011;18351;47.560;9.708;2023-06-10T10:30:30;13.73;;;12.02;;
31782;SDS011;18351;47.560;9.708;2023-06-10T10:33:04;14.38;;;12.98;;
31782;SDS011;18351;47.560;9.708;2023-06-10T10:35:32;14.80;;;13.30;;
31782;SDS011;18351;47.560;9.708;2023-06-10T10:37:59;13.73;;;12.18;;
31782;SDS011;18351;47.560;9.708;2023-06-10T10:40:25;14.85;;;13.20;;
31782;SDS011;18351;47.560;9.708;2023-06-10T10:42:55;15.13;;;12.25;;
31782;SDS011;18351;47.560;9.708;2023-06-10T10:45:22;12.45;;;11.15;;
31782;SDS011;18351;47.560;9.708;2023-06-10T10:47:53;16.13;;;12.50;;
31782;SDS011;18351;47.560;9.708;2023-06-10T10:50:20;14.25;;;12.80;;
31782;SDS011;18351;47.560;9.708;2023-06-10T10:52:56;14.95;;;11.93;;
31782;SDS011;18351;47.560;9.708;2023-06-10T10:55:29;14.75;;;12.30;;
31782;SDS011;18351;47.560;9.708;2023-06-10T11:00:24;22.02;;;11.55;;
31782;SDS011;18351;47.560;9.708;2023-06-10T11:03:13;13.40;;;12.00;;
31782;SDS011;18351;47.560;9.708;2023-06-10T11:05:42;13.88;;;12.48;;
31782;SDS011;18351;47.560;9.708;2023-06-10T11:08:15;15.13;;;13.13;;
31782;SDS011;18351;47.560;9.708;2023-06-10T11:11:01;14.55;;;12.10;;
31782;SDS011;18351;47.560;9.708;2023-06-10T11:13:48;14.25;;;12.52;;
31782;SDS011;18351;47.560;9.708;2023-06-10T11:16:29;19.05;;;13.45;;
31782;SDS011;18351;47.560;9.708;2023-06-10T11:19:02;12.15;;;10.98;;
31782;SDS011;18351;47.560;9.708;2023-06-10T11:21:28;13.02;;;10.88;;
31782;SDS011;18351;47.560;9.708;2023-06-10T11:23:53;12.88;;;11.60;;
31782;SDS011;18351;47.560;9.708;2023-06-10T11:33:55;16.27;;;11.40;;
31782;SDS011;18351;47.560;9.708;2023-06-10T11:36:25;13.57;;;10.95;;
31782;SDS011;18351;47.560;9.708;2023-06-10T11:38:59;11.60;;;10.50;;
31782;SDS011;18351;47.560;9.708;2023-06-10T11:41:31;15.77;;;12.02;;
31782;SDS011;18351;47.560;9.708;2023-06-10T11:44:00;12.07;;;10.90;;
31782;SDS011;18351;47.560;9.708;2023-06-10T11:46:33;12.95;;;11.32;;
31782;SDS011;18351;47.560;9.708;2023-06-10T11:48:59;13.23;;;11.68;;
31782;SDS011;18351;47.560;9.708;2023-06-10T11:51:33;12.55;;;11.10;;
31782;SDS011;18351;47.560;9.708;2023-06-10T11:54:00;11.40;;;10.30;;
31782;SDS011;18351;47.560;9.708;2023-06-10T11:56:27;12.10;;;10.45;;
31782;SDS011;18351;47.560;9.708;2023-06-10T11:58:54;12.00;;;10.90;;
31782;SDS011;18351;47.560;9.708;2023-06-10T12:01:24;15.68;;;10.20;;
31782;SDS011;18351;47.560;9.708;2023-06-10T12:04:00;11.75;;;10.07;;
31782;SDS011;18351;47.560;9.708;2023-06-10T12:06:37;10.63;;;9.63;;
31782;SDS011;18351;47.560;9.708;2023-06-10T12:09:06;11.40;;;10.20;;
31782;SDS011;18351;47.560;9.708;2023-06-10T12:11:38;11.57;;;10.38;;
31782;SDS011;18351;47.560;9.708;2023-06-10T12:14:04;10.88;;;9.73;;
31782;SDS011;18351;47.560;9.708;2023-06-10T12:16:31;12.02;;;10.27;;
31782;SDS011;18351;47.560;9.708;2023-06-10T12:19:00;10.73;;;9.63;;
31782;SDS011;18351;47.560;9.708;2023-06-10T12:21:31;11.80;;;9.23;;
31782;SDS011;18351;47.560;9.708;2023-06-10T12:26:36;13.18;;;9.93;;
31782;SDS011;18351;47.560;9.708;2023-06-10T12:29:18;11.25;;;9.52;;
31782;SDS011;18351;47.560;9.708;2023-06-10T12:31:51;10.85;;;9.43;;
31782;SDS011;18351;47.560;9.708;2023-06-10T12:34:31;9.63;;;8.73;;
31782;SDS011;18351;47.560;9.708;2023-06-10T12:37:02;11.05;;;8.30;;
31782;SDS011;18351;47.560;9.708;2023-06-10T12:39:29;10.23;;;9.23;;
31782;SDS011;18351;47.560;9.708;2023-06-10T12:41:56;10.77;;;9.68;;
31782;SDS011;18351;47.560;9.708;2023-06-10T12:44:29;11.43;;;8.75;;
31782;SDS011;18351;47.560;9.708;2023-06-10T12:46:59;10.40;;;8.90;;
31782;SDS011;18351;47.560;9.708;2023-06-10T12:49:25;11.77;;;8.90;;
31782;SDS011;18351;47.560;9.708;2023-06-10T12:51:51;9.20;;;8.20;;
31782;SDS011;18351;47.560;9.708;2023-06-10T12:54:18;11.55;;;8.25;;
31782;SDS011;18351;47.560;9.708;2023-06-10T12:56:44;9.20;;;8.32;;
31782;SDS011;18351;47.560;9.708;2023-06-10T12:59:09;8.70;;;7.50;;
31782;SDS011;18351;47.560;9.708;2023-06-10T13:01:36;8.38;;;7.57;;
31782;SDS011;18351;47.560;9.708;2023-06-10T13:04:04;9.10;;;8.20;;
31782;SDS011;18351;47.560;9.708;2023-06-10T13:06:31;10.27;;;8.50;;
31782;SDS011;18351;47.560;9.708;2023-06-10T13:08:58;8.32;;;7.50;;
31782;SDS011;18351;47.560;9.708;2023-06-10T13:11:24;9.27;;;8.30;;
31782;SDS011;18351;47.560;9.708;2023-06-10T13:13:50;9.07;;;8.10;;
31782;SDS011;18351;47.560;9.708;2023-06-10T13:16:16;9.63;;;7.40;;
31782;SDS011;18351;47.560;9.708;2023-06-10T13:18:42;7.65;;;6.95;;
31782;SDS011;18351;47.560;9.708;2023-06-10T13:21:07;9.02;;;7.57;;
31782;SDS011;18351;47.560;9.708;2023-06-10T13:23:33;8.05;;;7.25;;
31782;SDS011;18351;47.560;9.708;2023-06-10T13:25:58;6.20;;;5.50;;
31782;SDS011;18351;47.560;9.708;2023-06-10T13:28:24;5.57;;;5.05;;
31782;SDS011;18351;47.560;9.708;2023-06-10T13:30:50;6.75;;;6.15;;
31782;SDS011;18351;47.560;9.708;2023-06-10T13:33:16;6.47;;;5.85;;
31782;SDS011;18351;47.560;9.708;2023-06-10T13:35:41;9.38;;;7.57;;
31782;SDS011;18351;47.560;9.708;2023-06-10T13:38:07;10.80;;;6.90;;
31782;SDS011;18351;47.560;9.708;2023-06-10T13:40:33;7.75;;;6.47;;
31782;SDS011;18351;47.560;9.708;2023-06-10T13:42:58;11.48;;;7.28;;
31782;SDS011;18351;47.560;9.708;2023-06-10T13:45:24;6.22;;;5.63;;
31782;SDS011;18351;47.560;9.708;2023-06-10T13:47:50;5.70;;;5.13;;
31782;SDS011;18351;47.560;9.708;2023-06-10T13:50:16;8.57;;;5.25;;
31782;SDS011;18351;47.560;9.708;2023-06-10T13:52:41;6.53;;;5.57;;
31782;SDS011;18351;47.560;9.708;2023-06-10T13:55:07;7.32;;;5.47;;
31782;SDS011;18351;47.560;9.708;2023-06-10T13:57:33;7.50;;;5.07;;
31782;SDS011;18351;47.560;9.708;2023-06-10T13:59:59;5.80;;;4.78;;
31782;SDS011;18351;47.560;9.708;2023-06-10T14:02:25;5.25;;;4.75;;
31782;SDS011;18351;47.560;9.708;2023-06-10T14:04:50;5.32;;;4.82;;
31782;SDS011;18351;47.560;9.708;2023-06-10T14:07:16;5.25;;;4.75;;
31782;SDS011;18351;47.560;9.708;2023-06-10T14:09:42;8.27;;;4.88;;
31782;SDS011;18351;47.560;9.708;2023-06-10T14:12:08;5.47;;;4.97;;
31782;SDS011;18351;47.560;9.708;2023-06-10T14:14:34;5.55;;;5.00;;
31782;SDS011;18351;47.560;9.708;2023-06-10T14:17:01;5.57;;;5.07;;
31782;SDS011;18351;47.560;9.708;2023-06-10T14:19:26;4.68;;;4.13;;
31782;SDS011;18351;47.560;9.708;2023-06-10T14:21:52;6.00;;;4.40;;
31782;SDS011;18351;47.560;9.708;2023-06-10T14:24:20;5.40;;;4.90;;
31782;SDS011;18351;47.560;9.708;2023-06-10T14:26:48;5.10;;;4.60;;
31782;SDS011;18351;47.560;9.708;2023-06-10T14:29:16;5.38;;;4.88;;
31782;SDS011;18351;47.560;9.708;2023-06-10T14:31:43;6.28;;;4.75;;
31782;SDS011;18351;47.560;9.708;2023-06-10T14:34:09;13.90;;;5.03;;
31782;SDS011;18351;47.560;9.708;2023-06-10T14:36:34;4.25;;;3.85;;
31782;SDS011;18351;47.560;9.708;2023-06-10T14:39:00;4.40;;;4.00;;
31782;SDS011;18351;47.560;9.708;2023-06-10T14:41:26;4.68;;;4.13;;
31782;SDS011;18351;47.560;9.708;2023-06-10T14:43:52;4.82;;;4.43;;
31782;SDS011;18351;47.560;9.708;2023-06-10T14:46:17;4.60;;;4.20;;